sensor_id;sensor_type;location;lat;lon;timestamp;temperature;humidity
39751;DHT22;37579;51.074;17.004;2023-04-24T00:00:10;24.90;50.80
39751;DHT22;37579;51.074;17.004;2023-04-24T00:02:36;24.90;50.80
39751;DHT22;37579;51.074;17.004;2023-04-24T00:05:07;24.90;50.70
39751;DHT22;37579;51.074;17.004;2023-04-24T00:07:34;24.90;50.70
39751;DHT22;37579;51.074;17.004;2023-04-24T00:10:00;24.90;50.70
39751;DHT22;37579;51.074;17.004;2023-04-24T00:12:26;24.90;50.80
39751;DHT22;37579;51.074;17.004;2023-04-24T00:14:53;24.90;50.70
39751;DHT22;37579;51.074;17.004;2023-04-24T00:17:19;24.90;50.80
39751;DHT22;37579;51.074;17.004;2023-04-24T00:19:48;24.90;50.70
39751;DHT22;37579;51.074;17.004;2023-04-24T00:22:17;24.90;50.70
39751;DHT22;37579;51.074;17.004;2023-04-24T00:24:43;24.90;50.70
39751;DHT22;37579;51.074;17.004;2023-04-24T00:27:08;24.90;50.70
39751;DHT22;37579;51.074;17.004;2023-04-24T00:29:34;24.90;50.70
39751;DHT22;37579;51.074;17.004;2023-04-24T00:32:00;24.80;50.70
39751;DHT22;37579;51.074;17.004;2023-04-24T00:34:26;24.80;50.70
39751;DHT22;37579;51.074;17.004;2023-04-24T00:36:52;24.80;50.70
39751;DHT22;37579;51.074;17.004;2023-04-24T00:39:19;24.80;50.70
39751;DHT22;37579;51.074;17.004;2023-04-24T00:41:45;24.80;50.60
39751;DHT22;37579;51.074;17.004;2023-04-24T00:44:12;24.80;50.70
39751;DHT22;37579;51.074;17.004;2023-04-24T00:46:38;24.80;50.60
39751;DHT22;37579;51.074;17.004;2023-04-24T00:49:05;24.80;50.60
39751;DHT22;37579;51.074;17.004;2023-04-24T00:51:31;24.80;50.60
39751;DHT22;37579;51.074;17.004;2023-04-24T00:53:59;24.80;50.70
39751;DHT22;37579;51.074;17.004;2023-04-24T00:56:25;24.80;50.60
39751;DHT22;37579;51.074;17.004;2023-04-24T00:58:51;24.80;50.60
39751;DHT22;37579;51.074;17.004;2023-04-24T01:01:19;24.80;50.60
39751;DHT22;37579;51.074;17.004;2023-04-24T01:03:52;24.80;50.60
39751;DHT22;37579;51.074;17.004;2023-04-24T01:06:19;24.80;50.60
39751;DHT22;37579;51.074;17.004;2023-04-24T01:08:46;24.80;50.60
39751;DHT22;37579;51.074;17.004;2023-04-24T01:11:12;24.80;50.60
39751;DHT22;37579;51.074;17.004;2023-04-24T01:13:40;24.80;50.60
39751;DHT22;37579;51.074;17.004;2023-04-24T01:16:06;24.80;50.50
39751;DHT22;37579;51.074;17.004;2023-04-24T01:18:33;24.80;50.50
39751;DHT22;37579;51.074;17.004;2023-04-24T01:20:59;24.80;50.50
39751;DHT22;37579;51.074;17.004;2023-04-24T01:23:30;24.80;50.50
39751;DHT22;37579;51.074;17.004;2023-04-24T01:25:56;24.80;50.50
39751;DHT22;37579;51.074;17.004;2023-04-24T01:28:22;24.80;50.50
39751;DHT22;37579;51.074;17.004;2023-04-24T01:30:48;24.80;50.50
39751;DHT22;37579;51.074;17.004;2023-04-24T01:33:14;24.80;50.50
39751;DHT22;37579;51.074;17.004;2023-04-24T01:35:40;24.80;50.50
39751;DHT22;37579;51.074;17.004;2023-04-24T01:38:06;24.80;50.50
39751;DHT22;37579;51.074;17.004;2023-04-24T01:40:32;24.80;50.50
39751;DHT22;37579;51.074;17.004;2023-04-24T01:42:58;24.80;50.50
39751;DHT22;37579;51.074;17.004;2023-04-24T01:45:24;24.80;50.50
39751;DHT22;37579;51.074;17.004;2023-04-24T01:47:50;24.80;50.50
39751;DHT22;37579;51.074;17.004;2023-04-24T01:50:17;24.80;50.50
39751;DHT22;37579;51.074;17.004;2023-04-24T01:52:43;24.80;50.50
39751;DHT22;37579;51.074;17.004;2023-04-24T01:55:10;24.80;50.40
39751;DHT22;37579;51.074;17.004;2023-04-24T01:57:37;24.80;50.40
39751;DHT22;37579;51.074;17.004;2023-04-24T02:00:04;24.80;50.50
39751;DHT22;37579;51.074;17.004;2023-04-24T02:02:41;24.80;50.40
39751;DHT22;37579;51.074;17.004;2023-04-24T02:05:08;24.80;50.40
39751;DHT22;37579;51.074;17.004;2023-04-24T02:07:38;24.80;50.50
39751;DHT22;37579;51.074;17.004;2023-04-24T02:10:04;24.80;50.40
39751;DHT22;37579;51.074;17.004;2023-04-24T02:12:31;24.80;50.40
39751;DHT22;37579;51.074;17.004;2023-04-24T02:14:57;24.80;50.40
39751;DHT22;37579;51.074;17.004;2023-04-24T02:17:22;24.80;50.40
39751;DHT22;37579;51.074;17.004;2023-04-24T02:19:48;24.80;50.40
39751;DHT22;37579;51.074;17.004;2023-04-24T02:22:16;24.70;50.40
39751;DHT22;37579;51.074;17.004;2023-04-24T02:24:41;24.70;50.30
39751;DHT22;37579;51.074;17.004;2023-04-24T02:27:07;24.80;50.40
39751;DHT22;37579;51.074;17.004;2023-04-24T02:29:33;24.70;50.30
39751;DHT22;37579;51.074;17.004;2023-04-24T02:31:59;24.70;50.30
39751;DHT22;37579;51.074;17.004;2023-04-24T02:34:25;24.70;50.30
39751;DHT22;37579;51.074;17.004;2023-04-24T02:36:51;24.80;50.40
39751;DHT22;37579;51.074;17.004;2023-04-24T02:39:19;24.70;50.30
39751;DHT22;37579;51.074;17.004;2023-04-24T02:41:45;24.70;50.30
39751;DHT22;37579;51.074;17.004;2023-04-24T02:44:11;24.70;50.30
39751;DHT22;37579;51.074;17.004;2023-04-24T02:46:37;24.70;51.00
39751;DHT22;37579;51.074;17.004;2023-04-24T02:49:03;24.70;50.30
39751;DHT22;37579;51.074;17.004;2023-04-24T02:51:29;24.70;50.30
39751;DHT22;37579;51.074;17.004;2023-04-24T02:53:55;24.70;50.30
39751;DHT22;37579;51.074;17.004;2023-04-24T02:56:21;24.70;50.30
39751;DHT22;37579;51.074;17.004;2023-04-24T02:58:47;24.70;50.30
39751;DHT22;37579;51.074;17.004;2023-04-24T03:01:12;24.70;50.30
39751;DHT22;37579;51.074;17.004;2023-04-24T03:03:39;24.70;50.30
39751;DHT22;37579;51.074;17.004;2023-04-24T03:06:05;24.70;50.30
39751;DHT22;37579;51.074;17.004;2023-04-24T03:08:35;24.70;50.30
39751;DHT22;37579;51.074;17.004;2023-04-24T03:11:01;24.70;50.20
39751;DHT22;37579;51.074;17.004;2023-04-24T03:13:26;24.70;50.20
39751;DHT22;37579;51.074;17.004;2023-04-24T03:15:52;24.70;50.30
39751;DHT22;37579;51.074;17.004;2023-04-24T03:18:19;24.70;50.20
39751;DHT22;37579;51.074;17.004;2023-04-24T03:20:47;24.70;50.20
39751;DHT22;37579;51.074;17.004;2023-04-24T03:23:13;24.70;50.20
39751;DHT22;37579;51.074;17.004;2023-04-24T03:25:39;24.70;50.20
39751;DHT22;37579;51.074;17.004;2023-04-24T03:28:06;24.70;50.30
39751;DHT22;37579;51.074;17.004;2023-04-24T03:30:38;24.70;50.20
39751;DHT22;37579;51.074;17.004;2023-04-24T03:33:04;24.70;50.30
39751;DHT22;37579;51.074;17.004;2023-04-24T03:35:34;24.70;50.20
39751;DHT22;37579;51.074;17.004;2023-04-24T03:38:04;24.70;50.20
39751;DHT22;37579;51.074;17.004;2023-04-24T03:40:42;24.70;50.20
39751;DHT22;37579;51.074;17.004;2023-04-24T03:43:28;24.70;50.20
39751;DHT22;37579;51.074;17.004;2023-04-24T03:45:55;24.70;50.30
39751;DHT22;37579;51.074;17.004;2023-04-24T03:48:21;24.60;50.20
39751;DHT22;37579;51.074;17.004;2023-04-24T03:50:47;24.60;50.20
39751;DHT22;37579;51.074;17.004;2023-04-24T03:53:14;24.60;50.20
39751;DHT22;37579;51.074;17.004;2023-04-24T03:55:41;24.60;50.20
39751;DHT22;37579;51.074;17.004;2023-04-24T03:58:08;24.60;50.80
39751;DHT22;37579;51.074;17.004;2023-04-24T04:00:34;24.60;50.20
39751;DHT22;37579;51.074;17.004;2023-04-24T04:03:22;24.60;50.20
39751;DHT22;37579;51.074;17.004;2023-04-24T04:05:49;24.60;50.20
39751;DHT22;37579;51.074;17.004;2023-04-24T04:08:14;24.60;50.10
39751;DHT22;37579;51.074;17.004;2023-04-24T04:10:40;24.60;50.20
39751;DHT22;37579;51.074;17.004;2023-04-24T04:13:06;24.70;50.20
39751;DHT22;37579;51.074;17.004;2023-04-24T04:15:33;24.60;50.20
39751;DHT22;37579;51.074;17.004;2023-04-24T04:17:58;24.60;50.10
39751;DHT22;37579;51.074;17.004;2023-04-24T04:20:24;24.70;50.20
39751;DHT22;37579;51.074;17.004;2023-04-24T04:22:50;24.70;50.00
39751;DHT22;37579;51.074;17.004;2023-04-24T04:25:33;24.70;50.00
39751;DHT22;37579;51.074;17.004;2023-04-24T04:27:59;24.80;50.00
39751;DHT22;37579;51.074;17.004;2023-04-24T04:30:25;24.80;50.00
39751;DHT22;37579;51.074;17.004;2023-04-24T04:32:56;24.80;49.90
39751;DHT22;37579;51.074;17.004;2023-04-24T04:35:23;24.80;49.90
39751;DHT22;37579;51.074;17.004;2023-04-24T04:37:51;24.90;49.80
39751;DHT22;37579;51.074;17.004;2023-04-24T04:40:27;24.90;49.80
39751;DHT22;37579;51.074;17.004;2023-04-24T04:42:59;24.90;49.70
39751;DHT22;37579;51.074;17.004;2023-04-24T04:45:29;24.90;49.70
39751;DHT22;37579;51.074;17.004;2023-04-24T04:48:14;24.90;49.70
39751;DHT22;37579;51.074;17.004;2023-04-24T04:50:43;25.00;49.80
39751;DHT22;37579;51.074;17.004;2023-04-24T04:53:09;25.00;49.70
39751;DHT22;37579;51.074;17.004;2023-04-24T04:55:37;25.00;49.60
39751;DHT22;37579;51.074;17.004;2023-04-24T04:58:17;25.00;49.50
39751;DHT22;37579;51.074;17.004;2023-04-24T05:00:46;25.10;49.60
39751;DHT22;37579;51.074;17.004;2023-04-24T05:03:22;25.10;49.50
39751;DHT22;37579;51.074;17.004;2023-04-24T05:06:08;25.20;49.80
39751;DHT22;37579;51.074;17.004;2023-04-24T05:08:37;25.20;49.70
39751;DHT22;37579;51.074;17.004;2023-04-24T05:11:05;25.20;49.80
39751;DHT22;37579;51.074;17.004;2023-04-24T05:13:32;25.20;49.90
39751;DHT22;37579;51.074;17.004;2023-04-24T05:15:59;25.20;50.30
39751;DHT22;37579;51.074;17.004;2023-04-24T05:18:25;25.20;50.40
39751;DHT22;37579;51.074;17.004;2023-04-24T05:20:51;25.30;50.50
39751;DHT22;37579;51.074;17.004;2023-04-24T05:23:17;25.40;50.50
39751;DHT22;37579;51.074;17.004;2023-04-24T05:25:46;25.40;50.40
39751;DHT22;37579;51.074;17.004;2023-04-24T05:28:13;25.40;50.60
39751;DHT22;37579;51.074;17.004;2023-04-24T05:30:39;25.40;50.50
39751;DHT22;37579;51.074;17.004;2023-04-24T05:33:06;25.40;50.60
39751;DHT22;37579;51.074;17.004;2023-04-24T05:35:34;25.40;50.90
39751;DHT22;37579;51.074;17.004;2023-04-24T05:38:00;25.40;51.00
39751;DHT22;37579;51.074;17.004;2023-04-24T05:40:26;25.40;51.20
39751;DHT22;37579;51.074;17.004;2023-04-24T05:42:52;25.40;51.20
39751;DHT22;37579;51.074;17.004;2023-04-24T05:45:20;25.40;51.00
39751;DHT22;37579;51.074;17.004;2023-04-24T05:47:45;25.30;50.80
39751;DHT22;37579;51.074;17.004;2023-04-24T05:50:12;25.30;50.90
39751;DHT22;37579;51.074;17.004;2023-04-24T05:52:37;25.20;51.00
39751;DHT22;37579;51.074;17.004;2023-04-24T05:55:11;25.30;51.20
39751;DHT22;37579;51.074;17.004;2023-04-24T05:57:39;25.20;51.10
39751;DHT22;37579;51.074;17.004;2023-04-24T06:00:06;25.20;51.20
39751;DHT22;37579;51.074;17.004;2023-04-24T06:02:49;25.20;51.30
39751;DHT22;37579;51.074;17.004;2023-04-24T06:05:15;25.20;51.30
39751;DHT22;37579;51.074;17.004;2023-04-24T06:07:44;25.20;51.30
39751;DHT22;37579;51.074;17.004;2023-04-24T06:10:11;25.20;51.20
39751;DHT22;37579;51.074;17.004;2023-04-24T06:12:42;25.20;51.20
39751;DHT22;37579;51.074;17.004;2023-04-24T06:15:14;25.20;51.00
39751;DHT22;37579;51.074;17.004;2023-04-24T06:17:53;25.20;51.10
39751;DHT22;37579;51.074;17.004;2023-04-24T06:20:20;25.20;51.20
39751;DHT22;37579;51.074;17.004;2023-04-24T06:22:45;25.20;51.20
39751;DHT22;37579;51.074;17.004;2023-04-24T06:25:11;25.20;51.20
39751;DHT22;37579;51.074;17.004;2023-04-24T06:27:37;25.20;51.30
39751;DHT22;37579;51.074;17.004;2023-04-24T06:30:03;25.20;51.30
39751;DHT22;37579;51.074;17.004;2023-04-24T06:32:29;25.10;51.20
39751;DHT22;37579;51.074;17.004;2023-04-24T06:34:56;25.10;51.30
39751;DHT22;37579;51.074;17.004;2023-04-24T06:37:22;25.10;51.30
39751;DHT22;37579;51.074;17.004;2023-04-24T06:39:48;25.10;51.30
39751;DHT22;37579;51.074;17.004;2023-04-24T06:42:14;25.10;51.20
39751;DHT22;37579;51.074;17.004;2023-04-24T06:44:42;25.10;51.30
39751;DHT22;37579;51.074;17.004;2023-04-24T06:47:09;25.10;51.30
39751;DHT22;37579;51.074;17.004;2023-04-24T06:49:39;25.10;51.50
39751;DHT22;37579;51.074;17.004;2023-04-24T06:52:05;25.10;51.40
39751;DHT22;37579;51.074;17.004;2023-04-24T06:54:32;25.10;51.40
39751;DHT22;37579;51.074;17.004;2023-04-24T06:56:59;25.10;51.50
39751;DHT22;37579;51.074;17.004;2023-04-24T06:59:26;25.10;51.50
39751;DHT22;37579;51.074;17.004;2023-04-24T07:01:53;25.10;51.70
39751;DHT22;37579;51.074;17.004;2023-04-24T07:04:19;25.00;47.10
39751;DHT22;37579;51.074;17.004;2023-04-24T07:06:45;24.30;46.30
39751;DHT22;37579;51.074;17.004;2023-04-24T07:09:12;23.80;46.60
39751;DHT22;37579;51.074;17.004;2023-04-24T07:11:39;23.80;46.90
39751;DHT22;37579;51.074;17.004;2023-04-24T07:14:06;23.50;46.80
39751;DHT22;37579;51.074;17.004;2023-04-24T07:16:32;23.30;46.80
39751;DHT22;37579;51.074;17.004;2023-04-24T07:18:58;23.40;47.60
39751;DHT22;37579;51.074;17.004;2023-04-24T07:21:24;23.40;47.00
39751;DHT22;37579;51.074;17.004;2023-04-24T07:23:51;23.30;47.50
39751;DHT22;37579;51.074;17.004;2023-04-24T07:26:17;23.10;47.70
39751;DHT22;37579;51.074;17.004;2023-04-24T07:28:43;23.00;48.10
39751;DHT22;37579;51.074;17.004;2023-04-24T07:31:10;23.30;48.10
39751;DHT22;37579;51.074;17.004;2023-04-24T07:33:37;23.60;48.10
39751;DHT22;37579;51.074;17.004;2023-04-24T07:36:03;23.80;48.00
39751;DHT22;37579;51.074;17.004;2023-04-24T07:38:30;23.90;47.90
39751;DHT22;37579;51.074;17.004;2023-04-24T07:40:56;24.00;48.20
39751;DHT22;37579;51.074;17.004;2023-04-24T07:43:22;24.10;48.00
39751;DHT22;37579;51.074;17.004;2023-04-24T07:45:52;24.10;48.30
39751;DHT22;37579;51.074;17.004;2023-04-24T07:48:18;24.10;48.10
39751;DHT22;37579;51.074;17.004;2023-04-24T07:50:44;24.10;47.90
39751;DHT22;37579;51.074;17.004;2023-04-24T07:53:10;24.20;48.00
39751;DHT22;37579;51.074;17.004;2023-04-24T07:55:38;24.20;48.20
39751;DHT22;37579;51.074;17.004;2023-04-24T07:58:04;24.20;48.20
39751;DHT22;37579;51.074;17.004;2023-04-24T08:00:29;24.20;48.00
39751;DHT22;37579;51.074;17.004;2023-04-24T08:02:55;24.20;48.00
39751;DHT22;37579;51.074;17.004;2023-04-24T08:05:21;24.20;48.00
39751;DHT22;37579;51.074;17.004;2023-04-24T08:07:47;24.20;48.30
39751;DHT22;37579;51.074;17.004;2023-04-24T08:10:15;24.30;48.40
39751;DHT22;37579;51.074;17.004;2023-04-24T08:12:41;24.30;48.20
39751;DHT22;37579;51.074;17.004;2023-04-24T08:15:08;24.30;48.60
39751;DHT22;37579;51.074;17.004;2023-04-24T08:17:36;24.30;48.80
39751;DHT22;37579;51.074;17.004;2023-04-24T08:20:03;24.30;48.70
39751;DHT22;37579;51.074;17.004;2023-04-24T08:22:30;24.40;48.90
39751;DHT22;37579;51.074;17.004;2023-04-24T08:24:57;24.40;49.20
39751;DHT22;37579;51.074;17.004;2023-04-24T08:27:23;24.40;49.10
39751;DHT22;37579;51.074;17.004;2023-04-24T08:29:49;24.40;49.20
39751;DHT22;37579;51.074;17.004;2023-04-24T08:32:16;24.40;49.00
39751;DHT22;37579;51.074;17.004;2023-04-24T08:34:42;24.50;49.00
39751;DHT22;37579;51.074;17.004;2023-04-24T08:37:08;24.50;49.10
39751;DHT22;37579;51.074;17.004;2023-04-24T08:39:33;24.50;49.20
39751;DHT22;37579;51.074;17.004;2023-04-24T08:42:00;24.50;50.00
39751;DHT22;37579;51.074;17.004;2023-04-24T08:44:32;24.50;49.30
39751;DHT22;37579;51.074;17.004;2023-04-24T08:46:58;24.60;50.10
39751;DHT22;37579;51.074;17.004;2023-04-24T08:49:24;24.60;49.30
39751;DHT22;37579;51.074;17.004;2023-04-24T08:51:52;24.60;49.30
39751;DHT22;37579;51.074;17.004;2023-04-24T08:54:18;24.60;49.30
39751;DHT22;37579;51.074;17.004;2023-04-24T08:56:47;24.60;49.60
39751;DHT22;37579;51.074;17.004;2023-04-24T08:59:15;24.60;49.60
39751;DHT22;37579;51.074;17.004;2023-04-24T09:01:41;24.60;49.60
39751;DHT22;37579;51.074;17.004;2023-04-24T09:04:09;24.70;49.70
39751;DHT22;37579;51.074;17.004;2023-04-24T09:06:36;24.70;49.70
39751;DHT22;37579;51.074;17.004;2023-04-24T09:09:02;24.70;49.80
39751;DHT22;37579;51.074;17.004;2023-04-24T09:11:31;24.70;49.80
39751;DHT22;37579;51.074;17.004;2023-04-24T09:14:00;24.70;49.80
39751;DHT22;37579;51.074;17.004;2023-04-24T09:16:27;24.80;49.80
39751;DHT22;37579;51.074;17.004;2023-04-24T09:18:53;24.80;49.90
39751;DHT22;37579;51.074;17.004;2023-04-24T09:21:21;24.80;49.80
39751;DHT22;37579;51.074;17.004;2023-04-24T09:24:01;24.80;49.90
39751;DHT22;37579;51.074;17.004;2023-04-24T09:26:31;24.80;50.10
39751;DHT22;37579;51.074;17.004;2023-04-24T09:28:59;24.80;50.20
39751;DHT22;37579;51.074;17.004;2023-04-24T09:31:27;24.80;50.90
39751;DHT22;37579;51.074;17.004;2023-04-24T09:33:57;24.80;50.30
39751;DHT22;37579;51.074;17.004;2023-04-24T09:36:30;24.80;50.70
39751;DHT22;37579;51.074;17.004;2023-04-24T09:39:00;24.80;50.60
39751;DHT22;37579;51.074;17.004;2023-04-24T09:41:27;24.80;50.60
39751;DHT22;37579;51.074;17.004;2023-04-24T09:43:54;24.70;50.60
39751;DHT22;37579;51.074;17.004;2023-04-24T09:46:21;24.70;50.70
39751;DHT22;37579;51.074;17.004;2023-04-24T09:48:54;24.70;50.80
39751;DHT22;37579;51.074;17.004;2023-04-24T09:51:34;25.00;49.80
39751;DHT22;37579;51.074;17.004;2023-04-24T09:54:01;25.00;50.50
39751;DHT22;37579;51.074;17.004;2023-04-24T09:56:26;25.00;50.50
39751;DHT22;37579;51.074;17.004;2023-04-24T09:58:52;25.00;50.50
39751;DHT22;37579;51.074;17.004;2023-04-24T10:01:30;24.90;50.70
39751;DHT22;37579;51.074;17.004;2023-04-24T10:03:56;24.90;51.00
39751;DHT22;37579;51.074;17.004;2023-04-24T10:06:22;24.80;51.10
39751;DHT22;37579;51.074;17.004;2023-04-24T10:08:48;24.80;51.30
39751;DHT22;37579;51.074;17.004;2023-04-24T10:11:14;24.80;51.30
39751;DHT22;37579;51.074;17.004;2023-04-24T10:13:41;24.70;51.30
39751;DHT22;37579;51.074;17.004;2023-04-24T10:16:07;24.80;51.40
39751;DHT22;37579;51.074;17.004;2023-04-24T10:18:33;24.80;51.50
39751;DHT22;37579;51.074;17.004;2023-04-24T10:21:01;24.80;51.80
39751;DHT22;37579;51.074;17.004;2023-04-24T10:23:28;24.80;51.70
39751;DHT22;37579;51.074;17.004;2023-04-24T10:25:53;24.70;51.60
39751;DHT22;37579;51.074;17.004;2023-04-24T10:28:20;24.80;51.60
39751;DHT22;37579;51.074;17.004;2023-04-24T10:30:47;24.80;51.60
39751;DHT22;37579;51.074;17.004;2023-04-24T10:33:14;24.80;51.70
39751;DHT22;37579;51.074;17.004;2023-04-24T10:35:45;24.80;52.20
39751;DHT22;37579;51.074;17.004;2023-04-24T10:38:16;24.70;52.10
39751;DHT22;37579;51.074;17.004;2023-04-24T10:40:44;24.80;52.10
39751;DHT22;37579;51.074;17.004;2023-04-24T10:43:10;24.70;52.30
39751;DHT22;37579;51.074;17.004;2023-04-24T10:45:37;24.80;52.20
39751;DHT22;37579;51.074;17.004;2023-04-24T10:48:05;24.70;52.20
39751;DHT22;37579;51.074;17.004;2023-04-24T10:50:47;24.70;52.80
39751;DHT22;37579;51.074;17.004;2023-04-24T10:53:21;24.70;52.10
39751;DHT22;37579;51.074;17.004;2023-04-24T10:58:24;24.70;51.80
39751;DHT22;37579;51.074;17.004;2023-04-24T11:00:58;24.70;51.90
39751;DHT22;37579;51.074;17.004;2023-04-24T11:03:29;24.70;51.50
39751;DHT22;37579;51.074;17.004;2023-04-24T11:06:06;24.70;51.40
39751;DHT22;37579;51.074;17.004;2023-04-24T11:08:45;24.70;51.60
39751;DHT22;37579;51.074;17.004;2023-04-24T11:11:18;24.70;51.70
39751;DHT22;37579;51.074;17.004;2023-04-24T11:16:25;24.70;51.70
39751;DHT22;37579;51.074;17.004;2023-04-24T11:18:57;24.70;51.60
39751;DHT22;37579;51.074;17.004;2023-04-24T11:21:25;24.70;51.50
39751;DHT22;37579;51.074;17.004;2023-04-24T11:23:57;24.70;51.70
39751;DHT22;37579;51.074;17.004;2023-04-24T11:26:23;24.70;52.00
39751;DHT22;37579;51.074;17.004;2023-04-24T11:29:06;24.70;52.10
39751;DHT22;37579;51.074;17.004;2023-04-24T11:31:37;24.70;52.00
39751;DHT22;37579;51.074;17.004;2023-04-24T11:34:11;24.70;52.10
39751;DHT22;37579;51.074;17.004;2023-04-24T11:36:39;24.60;51.80
39751;DHT22;37579;51.074;17.004;2023-04-24T11:39:05;24.60;52.10
39751;DHT22;37579;51.074;17.004;2023-04-24T11:41:31;24.60;52.80
39751;DHT22;37579;51.074;17.004;2023-04-24T11:43:57;24.70;53.60
39751;DHT22;37579;51.074;17.004;2023-04-24T11:46:30;24.70;52.40
39751;DHT22;37579;51.074;17.004;2023-04-24T11:48:57;24.70;52.50
39751;DHT22;37579;51.074;17.004;2023-04-24T11:51:24;24.60;52.50
39751;DHT22;37579;51.074;17.004;2023-04-24T11:53:51;24.70;52.70
39751;DHT22;37579;51.074;17.004;2023-04-24T11:56:22;24.70;52.60
39751;DHT22;37579;51.074;17.004;2023-04-24T11:58:48;24.70;53.00
39751;DHT22;37579;51.074;17.004;2023-04-24T12:01:14;24.60;52.80
39751;DHT22;37579;51.074;17.004;2023-04-24T12:03:40;24.60;52.80
39751;DHT22;37579;51.074;17.004;2023-04-24T12:06:10;24.60;52.60
39751;DHT22;37579;51.074;17.004;2023-04-24T12:08:36;24.60;52.80
39751;DHT22;37579;51.074;17.004;2023-04-24T12:11:03;24.60;53.00
39751;DHT22;37579;51.074;17.004;2023-04-24T12:13:30;24.70;52.90
39751;DHT22;37579;51.074;17.004;2023-04-24T12:16:01;24.70;52.20
39751;DHT22;37579;51.074;17.004;2023-04-24T12:18:27;24.60;52.30
39751;DHT22;37579;51.074;17.004;2023-04-24T12:20:52;24.60;52.20
39751;DHT22;37579;51.074;17.004;2023-04-24T12:23:37;24.60;52.40
39751;DHT22;37579;51.074;17.004;2023-04-24T12:26:04;24.70;52.40
39751;DHT22;37579;51.074;17.004;2023-04-24T12:28:37;24.70;52.40
39751;DHT22;37579;51.074;17.004;2023-04-24T12:31:03;24.70;52.50
39751;DHT22;37579;51.074;17.004;2023-04-24T12:33:33;24.70;52.60
39751;DHT22;37579;51.074;17.004;2023-04-24T12:36:00;24.70;52.30
39751;DHT22;37579;51.074;17.004;2023-04-24T12:38:27;24.70;52.20
39751;DHT22;37579;51.074;17.004;2023-04-24T12:41:06;24.70;52.10
39751;DHT22;37579;51.074;17.004;2023-04-24T12:43:32;24.70;52.30
39751;DHT22;37579;51.074;17.004;2023-04-24T12:45:58;24.70;52.40
39751;DHT22;37579;51.074;17.004;2023-04-24T12:48:26;24.70;52.60
39751;DHT22;37579;51.074;17.004;2023-04-24T12:50:52;24.70;52.60
39751;DHT22;37579;51.074;17.004;2023-04-24T12:53:17;24.70;52.70
39751;DHT22;37579;51.074;17.004;2023-04-24T12:55:44;24.70;52.60
39751;DHT22;37579;51.074;17.004;2023-04-24T12:58:19;24.70;52.60
39751;DHT22;37579;51.074;17.004;2023-04-24T13:00:46;24.70;52.40
39751;DHT22;37579;51.074;17.004;2023-04-24T13:03:12;24.70;52.20
39751;DHT22;37579;51.074;17.004;2023-04-24T13:05:38;24.70;52.20
39751;DHT22;37579;51.074;17.004;2023-04-24T13:08:04;24.60;51.70
39751;DHT22;37579;51.074;17.004;2023-04-24T13:10:30;24.60;51.40
39751;DHT22;37579;51.074;17.004;2023-04-24T13:12:56;24.60;51.30
39751;DHT22;37579;51.074;17.004;2023-04-24T13:15:23;24.50;50.90
39751;DHT22;37579;51.074;17.004;2023-04-24T13:17:49;24.50;50.20
39751;DHT22;37579;51.074;17.004;2023-04-24T13:20:15;24.50;49.90
39751;DHT22;37579;51.074;17.004;2023-04-24T13:22:40;24.50;49.90
39751;DHT22;37579;51.074;17.004;2023-04-24T13:25:07;24.50;49.80
39751;DHT22;37579;51.074;17.004;2023-04-24T13:27:33;24.50;49.90
39751;DHT22;37579;51.074;17.004;2023-04-24T13:29:58;24.50;50.20
39751;DHT22;37579;51.074;17.004;2023-04-24T13:32:24;24.50;50.30
39751;DHT22;37579;51.074;17.004;2023-04-24T13:34:50;24.50;50.70
39751;DHT22;37579;51.074;17.004;2023-04-24T13:37:16;24.60;50.60
39751;DHT22;37579;51.074;17.004;2023-04-24T13:39:42;24.50;50.50
39751;DHT22;37579;51.074;17.004;2023-04-24T13:42:08;24.60;50.70
39751;DHT22;37579;51.074;17.004;2023-04-24T13:44:34;24.60;50.70
39751;DHT22;37579;51.074;17.004;2023-04-24T13:47:00;24.60;50.80
39751;DHT22;37579;51.074;17.004;2023-04-24T13:49:27;24.60;50.80
39751;DHT22;37579;51.074;17.004;2023-04-24T13:51:54;24.60;50.80
39751;DHT22;37579;51.074;17.004;2023-04-24T13:54:20;24.60;50.70
39751;DHT22;37579;51.074;17.004;2023-04-24T13:56:46;24.70;50.70
39751;DHT22;37579;51.074;17.004;2023-04-24T13:59:15;24.60;50.70
39751;DHT22;37579;51.074;17.004;2023-04-24T14:01:41;24.70;50.80
39751;DHT22;37579;51.074;17.004;2023-04-24T14:04:06;24.60;50.80
39751;DHT22;37579;51.074;17.004;2023-04-24T14:06:32;24.70;50.90
39751;DHT22;37579;51.074;17.004;2023-04-24T14:08:58;24.70;50.70
39751;DHT22;37579;51.074;17.004;2023-04-24T14:11:24;24.70;50.80
39751;DHT22;37579;51.074;17.004;2023-04-24T14:13:50;24.70;50.70
39751;DHT22;37579;51.074;17.004;2023-04-24T14:16:16;24.70;50.70
39751;DHT22;37579;51.074;17.004;2023-04-24T14:18:42;24.80;50.80
39751;DHT22;37579;51.074;17.004;2023-04-24T14:21:08;24.70;50.70
39751;DHT22;37579;51.074;17.004;2023-04-24T14:23:34;24.80;50.80
39751;DHT22;37579;51.074;17.004;2023-04-24T14:25:59;24.80;50.80
39751;DHT22;37579;51.074;17.004;2023-04-24T14:28:26;24.80;50.70
39751;DHT22;37579;51.074;17.004;2023-04-24T14:30:52;24.80;50.60
39751;DHT22;37579;51.074;17.004;2023-04-24T14:33:18;24.80;50.70
39751;DHT22;37579;51.074;17.004;2023-04-24T14:35:45;24.80;50.80
39751;DHT22;37579;51.074;17.004;2023-04-24T14:38:11;24.80;50.80
39751;DHT22;37579;51.074;17.004;2023-04-24T14:40:37;24.80;50.80
39751;DHT22;37579;51.074;17.004;2023-04-24T14:43:03;24.80;51.00
39751;DHT22;37579;51.074;17.004;2023-04-24T14:45:30;24.80;51.10
39751;DHT22;37579;51.074;17.004;2023-04-24T14:47:56;24.80;51.30
39751;DHT22;37579;51.074;17.004;2023-04-24T14:50:22;24.80;51.30
39751;DHT22;37579;51.074;17.004;2023-04-24T14:52:48;24.80;51.50
39751;DHT22;37579;51.074;17.004;2023-04-24T14:55:14;24.80;51.60
39751;DHT22;37579;51.074;17.004;2023-04-24T14:57:40;24.80;51.70
39751;DHT22;37579;51.074;17.004;2023-04-24T15:00:07;24.80;51.70
39751;DHT22;37579;51.074;17.004;2023-04-24T15:02:37;24.80;52.00
39751;DHT22;37579;51.074;17.004;2023-04-24T15:05:06;24.80;52.00
39751;DHT22;37579;51.074;17.004;2023-04-24T15:07:32;24.70;52.00
39751;DHT22;37579;51.074;17.004;2023-04-24T15:09:58;24.80;52.10
39751;DHT22;37579;51.074;17.004;2023-04-24T15:12:24;24.70;52.20
39751;DHT22;37579;51.074;17.004;2023-04-24T15:14:50;24.70;52.40
39751;DHT22;37579;51.074;17.004;2023-04-24T15:17:16;24.70;52.50
39751;DHT22;37579;51.074;17.004;2023-04-24T15:19:42;24.80;52.50
39751;DHT22;37579;51.074;17.004;2023-04-24T15:22:08;24.70;52.90